Terminal Aerodrome Forecast
Issued by NWS

Home | Current Version | Previous Version | Graphics & Text | Print | Product List | Glossary Off
Versions: 1 2 3 4 5 6 7 8 9 10 11 12 13 14

000
FTUS43 KMPX 291142
TAFAXN
TAF
KAXN 291142Z 2912/3012 22017G24KT P6SM OVC025
     FM291330 31026G37KT 5SM -RA OVC012
     FM291700 32028G38KT P6SM OVC015
     FM292000 31025G33KT P6SM FEW100
     FM300000 29013KT P6SM SKC
     FM300700 25005KT P6SM SKC=

USA.gov is the U.S. government's official web portal to all federal, state and local government web resources and services.